Time;durP1;ratioP1;P1;durP2;ratioP2;P2;SDS_P1;SDS_P2;PMS_P1;PMS_P2;Temp;Humidity;BMP_temperature;BMP_pressure;BME280_temperature;BME280_humidity;BME280_pressure;Samples;Min_cycle;Max_cycle;Signal;HPM_P1;HPM_P2
2022/03/10 00:00:50;;;;;;;29.30;21.30;;;;;;;12.80;83.07;100642.75;5051386;28;20056;-73
2022/03/10 00:03:18;;;;;;;28.27;23.23;;;;;;;12.84;83.06;100643.84;5054097;28;20068;-73
2022/03/10 00:05:45;;;;;;;23.80;18.07;;;;;;;12.80;82.92;100637.16;5055254;28;20478;-74
2022/03/10 00:08:12;;;;;;;29.70;21.50;;;;;;;12.41;82.94;100568.00;5054221;28;20084;-73
2022/03/10 00:10:39;;;;;;;29.57;20.70;;;;;;;12.67;82.91;100616.25;5054128;28;20075;-73
2022/03/10 00:13:06;;;;;;;30.90;20.87;;;;;;;12.88;83.07;100641.28;5050273;28;20049;-75
2022/03/10 00:15:33;;;;;;;26.53;18.73;;;;;;;12.76;83.13;100613.66;5045245;28;20084;-74
2022/03/10 00:18:02;;;;;;;26.63;18.60;;;;;;;12.85;83.06;100627.84;5050802;28;20094;-74
2022/03/10 00:20:29;;;;;;;30.00;21.47;;;;;;;12.57;83.25;100575.13;5054403;28;20056;-74
2022/03/10 00:22:57;;;;;;;31.60;20.53;;;;;;;12.68;83.14;100591.84;5053406;28;20080;-75
2022/03/10 00:25:24;;;;;;;25.23;18.60;;;;;;;12.56;83.29;100569.84;5048095;28;20089;-77
2022/03/10 00:27:51;;;;;;;27.03;21.73;;;;;;;12.87;83.06;100608.78;5053533;28;20080;-78
2022/03/10 00:30:18;;;;;;;26.10;19.07;;;;;;;12.75;83.12;100579.19;5046749;28;20126;-75
2022/03/10 00:32:48;;;;;;;31.37;20.77;;;;;;;12.88;83.03;100605.69;5051536;28;20140;-76
2022/03/10 00:35:23;;;;;;;28.57;22.97;;;;;;;12.86;83.24;100602.34;5052964;28;20081;-73
2022/03/10 00:37:58;;;;;;;24.27;18.90;;;;;;;12.91;83.22;100593.06;5053855;28;20103;-81
2022/03/10 00:40:27;;;;;;;25.10;19.40;;;;;;;12.91;83.27;100598.66;5054689;28;20167;-75
2022/03/10 00:42:54;;;;;;;24.00;17.87;;;;;;;12.84;83.19;100593.41;5054492;28;20084;-76
2022/03/10 00:45:21;;;;;;;22.00;18.30;;;;;;;12.91;83.30;100593.06;5054136;28;20053;-74
2022/03/10 00:47:50;;;;;;;21.43;18.60;;;;;;;12.89;83.28;100592.50;5040429;28;20118;-74
2022/03/10 00:50:17;;;;;;;20.53;17.67;;;;;;;12.83;83.20;100586.13;5049426;28;20183;-72
2022/03/10 00:52:46;;;;;;;23.60;17.40;;;;;;;12.79;83.30;100587.84;5050501;28;20511;-72
2022/03/10 00:55:17;;;;;;;26.87;19.83;;;;;;;12.77;83.47;100582.53;5053484;28;20052;-73
2022/03/10 00:57:44;;;;;;;27.47;19.40;;;;;;;12.57;83.26;100547.13;5053040;28;20110;-72
2022/03/10 01:00:11;;;;;;;24.10;18.73;;;;;;;12.75;83.34;100561.53;5053317;28;20393;-72
2022/03/10 01:02:38;;;;;;;27.47;19.10;;;;;;;12.85;83.28;100574.63;5065157;28;20083;-73
2022/03/10 01:05:07;;;;;;;23.57;19.23;;;;;;;12.80;83.32;100561.50;5052876;28;20426;-72
2022/03/10 01:07:34;;;;;;;22.37;17.93;;;;;;;12.71;83.20;100566.06;5053582;28;20048;-71
2022/03/10 01:10:05;;;;;;;26.70;20.63;;;;;;;12.72;83.16;100568.59;5053660;28;20087;-71
2022/03/10 01:12:32;;;;;;;;;;;;;;;12.71;83.52;100566.06;5053378;28;20041;-71
2022/03/10 01:14:59;;;;;;;30.90;20.23;;;;;;;12.59;83.26;100540.41;5052137;28;20042;-71
2022/03/10 01:17:26;;;;;;;35.90;23.83;;;;;;;12.74;83.28;100568.28;5071518;28;20037;-71
2022/03/10 01:19:53;;;;;;;33.43;20.57;;;;;;;12.69;83.38;100563.56;5075927;28;20044;-72
2022/03/10 01:22:20;;;;;;;37.27;22.57;;;;;;;12.42;83.32;100524.03;5076487;28;20052;-72
2022/03/10 01:24:46;;;;;;;38.67;22.83;;;;;;;12.75;83.42;100578.34;5060829;28;20055;-73
2022/03/10 01:27:15;;;;;;;31.90;20.67;;;;;;;12.71;83.33;100572.50;5052688;28;20072;-73
2022/03/10 01:29:42;;;;;;;33.20;22.80;;;;;;;12.64;83.12;100559.97;5051910;28;20076;-73
2022/03/10 01:32:09;;;;;;;24.13;18.80;;;;;;;12.68;83.30;100584.28;5051846;28;20083;-73
2022/03/10 01:34:36;;;;;;;22.23;17.73;;;;;;;12.57;83.38;100571.50;5050164;28;20049;-73
2022/03/10 01:37:03;;;;;;;32.07;21.93;;;;;;;12.74;83.11;100580.31;5052526;28;20053;-72
2022/03/10 01:39:32;;;;;;;;;;;;;;;12.67;83.73;100577.03;5051742;28;20055;-72
2022/03/10 01:42:00;;;;;;;40.53;20.97;;;;;;;12.69;83.45;100574.78;5051608;28;19921;-71
2022/03/10 01:44:28;;;;;;;33.13;21.17;;;;;;;12.72;83.45;100573.34;5051413;28;20049;-72
2022/03/10 01:46:55;;;;;;;30.03;21.77;;;;;;;12.69;83.62;100573.94;5051089;28;20080;-73
2022/03/10 01:49:22;;;;;;;29.20;20.77;;;;;;;12.11;83.45;100489.88;5052061;28;20049;-72
2022/03/10 01:51:51;;;;;;;19.93;15.57;;;;;;;12.57;83.62;100558.31;5041152;28;20095;-75
2022/03/10 01:54:19;;;;;;;41.57;20.37;;;;;;;12.28;83.52;100510.72;5050520;28;20485;-74
2022/03/10 01:56:47;;;;;;;21.30;16.97;;;;;;;12.69;83.45;100568.34;5050490;28;20071;-73
2022/03/10 01:59:14;;;;;;;26.07;18.37;;;;;;;12.71;83.37;100561.28;5047518;28;20052;-74
2022/03/10 02:01:41;;;;;;;21.93;17.10;;;;;;;12.34;83.59;100497.47;5034207;28;20491;-73
2022/03/10 02:04:08;;;;;;;24.47;16.33;;;;;;;12.65;83.42;100547.63;5049886;28;20110;-73
2022/03/10 02:06:36;;;;;;;29.00;19.30;;;;;;;12.33;83.25;100493.84;5051850;28;20485;-74
2022/03/10 02:11:56;;;;;;;23.47;15.80;;;;;;;12.65;83.35;100539.22;5050508;28;20071;-74
2022/03/10 02:17:21;;;;;;;28.17;17.57;;;;;;;12.76;83.32;100554.81;5047951;28;20076;-73
2022/03/10 02:20:06;;;;;;;23.05;17.40;;;;;;;12.76;83.58;100558.44;5050933;28;20053;-72
2022/03/10 02:22:33;;;;;;;36.10;21.73;;;;;;;12.78;83.51;100546.94;5047735;28;20054;-76
2022/03/10 02:25:00;;;;;;;32.37;19.17;;;;;;;12.81;83.27;100547.16;5051858;28;20049;-71
2022/03/10 02:27:27;;;;;;;36.07;18.60;;;;;;;12.64;83.39;100504.75;5051859;28;20049;-72
2022/03/10 02:30:00;;;;;;;31.77;18.83;;;;;;;12.87;83.35;100536.75;5051912;28;20439;-72
2022/03/10 02:32:27;;;;;;;41.43;18.33;;;;;;;12.81;83.39;100541.56;5051272;28;20045;-73
2022/03/10 02:34:54;;;;;;;22.83;16.77;;;;;;;12.57;83.33;100499.50;5051566;28;20542;-74
2022/03/10 02:37:21;;;;;;;30.13;18.70;;;;;;;12.73;83.33;100525.41;5051685;28;20049;-73
2022/03/10 02:39:48;;;;;;;17.27;15.43;;;;;;;12.86;83.35;100543.50;5051904;28;20187;-70
2022/03/10 02:42:15;;;;;;;30.67;16.83;;;;;;;12.81;83.31;100538.75;5047167;28;20516;-69
2022/03/10 02:44:43;;;;;;;16.17;14.47;;;;;;;12.81;83.42;100540.75;5049639;28;20053;-70
2022/03/10 02:47:10;;;;;;;15.83;13.93;;;;;;;12.76;83.28;100535.19;5055357;28;20049;-69
2022/03/10 02:49:39;;;;;;;24.07;16.03;;;;;;;12.80;83.34;100536.28;5055393;28;20045;-70
2022/03/10 02:52:06;;;;;;;24.83;15.60;;;;;;;12.76;83.48;100532.41;5055372;28;20077;-69
2022/03/10 02:54:42;;;;;;;14.40;13.03;;;;;;;12.70;83.38;100533.56;5055753;28;20071;-69
2022/03/10 02:57:09;;;;;;;14.20;12.73;;;;;;;12.75;83.27;100528.75;5055545;28;20060;-70
2022/03/10 02:59:36;;;;;;;16.37;14.47;;;;;;;12.67;83.35;100520.97;5054231;28;20089;-70
2022/03/10 03:02:04;;;;;;;12.60;11.60;;;;;;;12.64;83.51;100521.56;5053896;28;20179;-71
2022/03/10 03:04:31;;;;;;;13.13;11.80;;;;;;;12.61;83.60;100524.97;5055522;28;20049;-70
2022/03/10 03:06:58;;;;;;;18.30;14.63;;;;;;;12.60;83.57;100514.06;5056461;28;20080;-72
2022/03/10 03:09:25;;;;;;;16.17;13.30;;;;;;;12.62;83.56;100517.41;5054777;28;20084;-70
2022/03/10 03:11:53;;;;;;;17.73;14.17;;;;;;;12.31;83.61;100459.72;5055281;28;20075;-72
2022/03/10 03:14:23;;;;;;;16.50;14.87;;;;;;;12.62;83.54;100507.03;5055099;28;20088;-73
2022/03/10 03:16:51;;;;;;;13.43;12.43;;;;;;;12.60;83.59;100508.47;5053535;28;20057;-73
2022/03/10 03:19:18;;;;;;;11.77;10.83;;;;;;;12.58;83.65;100517.19;5055138;28;20051;-73
2022/03/10 03:21:45;;;;;;;13.43;12.43;;;;;;;12.57;83.58;100516.31;5054743;28;20131;-73
2022/03/10 03:24:13;;;;;;;17.27;13.70;;;;;;;12.24;83.42;100466.78;5054652;28;20072;-73
2022/03/10 03:26:40;;;;;;;22.40;14.27;;;;;;;12.37;83.47;100480.09;5054981;28;20411;-73
2022/03/10 03:29:07;;;;;;;22.63;15.57;;;;;;;12.48;83.67;100512.50;5055356;28;20087;-73
2022/03/10 03:31:34;;;;;;;17.47;13.17;;;;;;;12.47;83.45;100507.16;5054568;28;20091;-71
2022/03/10 03:34:02;;;;;;;25.80;14.17;;;;;;;12.68;83.33;100510.59;5054844;28;20049;-72
2022/03/10 03:36:29;;;;;;;13.43;11.80;;;;;;;12.59;83.43;100501.19;5054883;28;20095;-73
2022/03/10 03:38:56;;;;;;;21.57;14.20;;;;;;;12.59;83.51;100498.41;5055697;28;20053;-71
2022/03/10 03:41:23;;;;;;;21.63;13.83;;;;;;;12.63;83.46;100507.88;5055331;28;20480;-70
2022/03/10 03:43:50;;;;;;;13.47;12.13;;;;;;;12.69;83.39;100509.50;5055661;28;20503;-71
2022/03/10 03:46:26;;;;;;;20.70;14.80;;;;;;;12.64;83.38;100515.13;5054413;28;20052;-72
2022/03/10 03:48:55;;;;;;;27.33;14.97;;;;;;;12.67;83.30;100508.94;5049427;28;20056;-71
2022/03/10 03:51:22;;;;;;;22.80;14.30;;;;;;;12.35;83.30;100454.38;5054970;28;20045;-71
2022/03/10 03:53:50;;;;;;;14.07;11.37;;;;;;;12.32;83.29;100457.75;5053877;28;20087;-71
2022/03/10 03:56:17;;;;;;;15.03;13.47;;;;;;;12.68;83.46;100505.00;5055507;28;20106;-71
2022/03/10 03:58:44;;;;;;;23.43;13.50;;;;;;;12.62;83.29;100506.22;5053318;28;20085;-70
2022/03/10 04:01:11;;;;;;;20.10;13.87;;;;;;;12.61;83.28;100496.94;5051166;28;20146;-70
2022/03/10 04:03:39;;;;;;;15.67;12.00;;;;;;;12.71;83.05;100510.03;5054205;28;20052;-72
2022/03/10 04:06:06;;;;;;;19.63;13.13;;;;;;;12.68;83.17;100505.00;5054435;28;20127;-71
2022/03/10 04:08:33;;;;;;;12.70;11.40;;;;;;;12.69;83.16;100501.09;5036680;28;20499;-70
2022/03/10 04:11:01;;;;;;;26.37;15.20;;;;;;;12.76;82.89;100501.56;5049571;28;20072;-71
2022/03/10 04:13:29;;;;;;;12.63;11.43;;;;;;;12.39;82.91;100449.84;5054271;28;20115;-72
2022/03/10 04:15:55;;;;;;;20.23;12.83;;;;;;;12.73;83.02;100507.78;5054169;28;20111;-70
2022/03/10 04:18:23;;;;;;;21.10;13.40;;;;;;;12.42;82.95;100452.06;5036273;28;20132;-68
2022/03/10 04:20:49;;;;;;;13.50;12.07;;;;;;;12.69;83.00;100496.31;5053406;28;20049;-71
2022/03/10 04:23:18;;;;;;;17.37;12.03;;;;;;;12.65;83.08;100478.44;5054722;28;20080;-75
2022/03/10 04:25:45;;;;;;;14.83;11.97;;;;;;;12.68;83.01;100482.59;5053893;28;20132;-76
2022/03/10 04:28:12;;;;;;;12.27;11.17;;;;;;;12.65;83.14;100488.78;5036295;28;20057;-76
2022/03/10 04:30:44;;;;;;;22.70;13.40;;;;;;;12.70;83.05;100491.53;5051698;28;20041;-71
2022/03/10 04:33:12;;;;;;;10.65;9.88;;;;;;;12.70;82.91;100495.19;5036259;28;20075;-72
2022/03/10 04:35:38;;;;;;;14.20;12.90;;;;;;;12.46;82.85;100453.13;5053766;28;20114;-70
2022/03/10 04:38:05;;;;;;;14.10;12.90;;;;;;;12.71;83.14;100496.00;5053412;28;20049;-70
2022/03/10 04:40:33;;;;;;;19.17;14.17;;;;;;;12.57;82.97;100482.69;5052572;28;20057;-72
2022/03/10 04:43:00;;;;;;;17.87;15.63;;;;;;;12.62;82.93;100500.59;5053490;28;20045;-70
2022/03/10 04:45:27;;;;;;;18.73;15.77;;;;;;;12.54;82.97;100491.69;5053830;28;20091;-72
2022/03/10 04:47:54;;;;;;;16.43;15.00;;;;;;;12.48;83.06;100473.28;5052192;28;20539;-71
2022/03/10 04:50:21;;;;;;;19.73;16.80;;;;;;;12.42;83.41;100480.06;5054170;28;20455;-72
2022/03/10 04:52:47;;;;;;;16.00;14.90;;;;;;;12.33;83.55;100482.66;5052845;28;20067;-70
2022/03/10 04:55:14;;;;;;;15.93;14.53;;;;;;;12.15;84.15;100479.75;5053059;28;20119;-69
2022/03/10 04:57:41;;;;;;;23.77;15.90;;;;;;;12.02;84.56;100468.09;5053493;28;20099;-72
2022/03/10 05:00:11;;;;;;;16.97;15.13;;;;;;;12.16;84.24;100467.41;5046797;28;20097;-71
2022/03/10 05:02:39;;;;;;;19.30;16.70;;;;;;;12.12;84.11;100469.13;5051480;28;20048;-71
2022/03/10 05:05:07;;;;;;;14.90;13.93;;;;;;;12.07;84.37;100456.88;5044469;28;20053;-71
2022/03/10 05:07:34;;;;;;;14.53;13.83;;;;;;;11.97;84.76;100470.94;5049256;28;20551;-71
2022/03/10 05:10:02;;;;;;;20.37;15.13;;;;;;;11.72;85.04;100431.91;5035596;28;20098;-72
2022/03/10 05:12:32;;;;;;;13.87;13.00;;;;;;;11.60;84.93;100419.13;5051747;28;20048;-71
2022/03/10 05:15:01;;;;;;;16.60;14.97;;;;;;;11.67;84.61;100413.22;5051295;28;20052;-73
2022/03/10 05:17:28;;;;;;;14.27;13.40;;;;;;;11.82;84.78;100431.84;5052042;28;20045;-72
2022/03/10 05:19:55;;;;;;;16.00;14.57;;;;;;;11.73;84.54;100416.81;5052087;28;20118;-72
2022/03/10 05:22:22;;;;;;;13.63;12.93;;;;;;;12.07;84.65;100461.63;5052466;28;20151;-72
2022/03/10 05:24:48;;;;;;;17.33;16.10;;;;;;;12.06;84.69;100457.97;5052589;28;20041;-73
2022/03/10 05:27:15;;;;;;;14.80;13.63;;;;;;;12.03;84.82;100466.97;5052073;28;20076;-72
2022/03/10 05:29:43;;;;;;;12.87;12.27;;;;;;;12.09;84.64;100471.38;5052550;28;20049;-73
2022/03/10 05:32:17;;;;;;;12.63;11.83;;;;;;;11.52;84.51;100371.38;5051123;28;20507;-73
2022/03/10 05:34:44;;;;;;;12.77;12.00;;;;;;;11.79;84.28;100421.22;5052372;28;20484;-74
2022/03/10 05:37:11;;;;;;;15.80;12.47;;;;;;;11.96;84.37;100434.84;5052792;28;20072;-72
2022/03/10 05:39:39;;;;;;;12.77;11.67;;;;;;;12.21;84.27;100467.38;5052979;28;20503;-72
2022/03/10 05:42:06;;;;;;;16.77;12.67;;;;;;;11.61;84.17;100373.25;5051966;28;20107;-71
2022/03/10 05:44:33;;;;;;;16.00;12.47;;;;;;;12.32;83.86;100458.59;5052303;28;20068;-72
2022/03/10 05:47:00;;;;;;;15.97;11.13;;;;;;;12.32;83.91;100446.56;5051272;28;20076;-72
2022/03/10 05:49:27;;;;;;;23.43;11.87;;;;;;;12.46;83.70;100458.72;5053737;28;20071;-73
2022/03/10 05:51:54;;;;;;;15.17;12.43;;;;;;;12.27;83.98;100455.84;5052079;28;20048;-73
2022/03/10 05:54:21;;;;;;;13.97;9.93;;;;;;;12.34;83.97;100466.69;5052489;28;20041;-74
2022/03/10 05:56:47;;;;;;;18.27;11.33;;;;;;;12.44;83.58;100458.19;5052300;28;20045;-75
2022/03/10 05:59:14;;;;;;;16.13;11.60;;;;;;;12.20;83.44;100410.53;5052231;28;20084;-74
2022/03/10 06:01:41;;;;;;;14.43;11.57;;;;;;;12.56;83.38;100467.03;5033963;28;20082;-74
2022/03/10 06:04:08;;;;;;;11.80;10.73;;;;;;;12.55;83.22;100468.16;5051082;28;20047;-73
2022/03/10 06:06:35;;;;;;;21.57;10.97;;;;;;;12.54;83.54;100460.03;5051680;28;20577;-73
2022/03/10 06:09:05;;;;;;;16.27;11.13;;;;;;;12.54;83.45;100449.66;5052320;28;20053;-72
2022/03/10 06:11:33;;;;;;;10.98;9.90;;;;;;;12.55;83.45;100462.56;5051716;28;20495;-74
2022/03/10 06:14:00;;;;;;;13.00;9.67;;;;;;;12.20;83.36;100409.69;5051634;28;20084;-70
2022/03/10 06:16:27;;;;;;;12.47;10.60;;;;;;;12.70;83.24;100464.34;5051841;28;20099;-73
2022/03/10 06:18:59;;;;;;;16.90;11.27;;;;;;;12.24;83.21;100393.97;5052426;28;20477;-71
2022/03/10 06:21:28;;;;;;;15.47;10.80;;;;;;;12.66;83.40;100448.44;5049266;28;20428;-72
2022/03/10 06:23:55;;;;;;;22.27;10.67;;;;;;;12.65;83.40;100449.56;5048005;28;20045;-74
2022/03/10 06:26:22;;;;;;;8.33;7.93;;;;;;;12.37;83.51;100403.66;5052978;28;20048;-75
2022/03/10 06:28:49;;;;;;;9.90;8.93;;;;;;;12.57;83.46;100421.06;5052893;28;20095;-76
2022/03/10 06:31:16;;;;;;;8.83;8.17;;;;;;;12.67;83.53;100436.94;5053069;28;20045;-73
2022/03/10 06:33:43;;;;;;;19.60;9.40;;;;;;;12.63;83.64;100437.84;5052863;28;20049;-74
2022/03/10 06:36:11;;;;;;;10.00;9.10;;;;;;;12.68;83.53;100429.34;5053171;28;20056;-73
2022/03/10 06:38:38;;;;;;;16.10;10.87;;;;;;;12.35;83.50;100383.53;5053549;28;20088;-73
2022/03/10 06:41:05;;;;;;;16.33;10.20;;;;;;;12.71;83.66;100438.00;5055490;28;20072;-71
2022/03/10 06:43:32;;;;;;;13.87;10.27;;;;;;;12.39;83.58;100379.84;5062614;28;20033;-72
2022/03/10 06:45:58;;;;;;;12.50;10.13;;;;;;;12.87;83.48;100449.88;5067343;28;20111;-71
2022/03/10 06:48:25;;;;;;;13.83;10.77;;;;;;;12.48;83.48;100394.03;5052304;28;20139;-76
2022/03/10 06:50:52;;;;;;;11.00;9.83;;;;;;;12.75;83.76;100447.50;5035012;28;20495;-76
2022/03/10 06:53:19;;;;;;;24.40;11.57;;;;;;;12.68;83.65;100415.34;5051805;28;20102;-73
2022/03/10 06:55:46;;;;;;;14.20;11.83;;;;;;;12.73;83.59;100418.94;5054105;28;20079;-72
2022/03/10 06:58:13;;;;;;;10.03;9.33;;;;;;;12.97;83.46;100449.75;5055863;28;20075;-75
2022/03/10 07:00:40;;;;;;;14.27;10.77;;;;;;;13.00;83.57;100437.94;5061239;28;20033;-73
2022/03/10 07:03:07;;;;;;;10.00;9.13;;;;;;;12.95;83.48;100438.00;5076851;28;20025;-76
2022/03/10 07:05:34;;;;;;;16.47;10.73;;;;;;;13.04;83.51;100446.59;5075904;28;20045;-71
2022/03/10 07:08:01;;;;;;;18.50;11.43;;;;;;;13.07;83.52;100456.38;5074436;28;20049;-73
2022/03/10 07:10:28;;;;;;;10.73;8.80;;;;;;;12.92;83.47;100424.59;5071504;28;20049;-74
2022/03/10 07:12:55;;;;;;;11.90;10.90;;;;;;;12.48;83.26;100369.66;5073012;28;20049;-74
2022/03/10 07:15:22;;;;;;;12.03;10.40;;;;;;;12.99;83.63;100444.69;5065803;28;20075;-73
2022/03/10 07:17:51;;;;;;;10.98;9.15;;;;;;;12.85;83.57;100429.72;5061879;28;20134;-74
2022/03/10 07:20:18;;;;;;;10.67;9.67;;;;;;;12.94;83.54;100461.56;5053827;28;20158;-74
2022/03/10 07:22:46;;;;;;;11.73;9.90;;;;;;;12.79;83.89;100442.13;5062512;28;20049;-74
2022/03/10 07:25:13;;;;;;;11.30;10.23;;;;;;;12.42;83.96;100395.22;5047731;28;20086;-74
2022/03/10 07:27:40;;;;;;;11.67;10.97;;;;;;;12.67;84.29;100441.69;5036259;28;20052;-74
2022/03/10 07:30:08;;;;;;;20.13;13.10;;;;;;;12.13;84.27;100372.81;5052409;28;20045;-78
2022/03/10 07:32:34;;;;;;;11.53;10.63;;;;;;;12.65;84.28;100436.41;5051528;28;20398;-77
2022/03/10 07:35:02;;;;;;;14.53;11.77;;;;;;;12.61;84.47;100442.88;5056317;28;20073;-79
2022/03/10 07:37:29;;;;;;;15.90;11.40;;;;;;;12.70;84.39;100447.53;5054096;28;20499;-80
2022/03/10 07:39:57;;;;;;;11.87;10.87;;;;;;;12.73;84.48;100451.72;5050519;28;20057;-80
2022/03/10 07:42:24;;;;;;;13.23;12.13;;;;;;;12.74;84.52;100465.44;5055014;28;20052;-78
2022/03/10 07:44:52;;;;;;;14.70;11.93;;;;;;;12.67;84.35;100450.09;5054365;28;20044;-81
2022/03/10 07:47:19;;;;;;;14.00;11.70;;;;;;;12.73;84.55;100452.56;5051676;28;20056;-80
2022/03/10 07:49:47;;;;;;;11.47;10.53;;;;;;;12.44;84.45;100404.97;5053449;28;20048;-81
2022/03/10 07:52:14;;;;;;;11.43;10.37;;;;;;;12.76;84.29;100429.53;5055328;28;20041;-79
2022/03/10 07:54:40;;;;;;;11.23;10.23;;;;;;;12.62;84.73;100436.16;5053147;28;20069;-81
2022/03/10 07:57:07;;;;;;;12.13;10.63;;;;;;;12.80;84.15;100460.63;5052264;28;20132;-79
2022/03/10 07:59:35;;;;;;;17.00;13.10;;;;;;;12.71;84.21;100457.63;5052696;28;20199;-80
2022/03/10 08:02:04;;;;;;;16.73;12.70;;;;;;;12.90;84.07;100468.91;5052097;28;20051;-80
2022/03/10 08:04:38;;;;;;;9.50;8.90;;;;;;;12.91;83.94;100459.34;5051311;28;20045;-80
2022/03/10 08:07:05;;;;;;;9.60;8.67;;;;;;;12.27;83.98;100355.06;5042739;28;20496;-80
2022/03/10 08:09:32;;;;;;;11.87;10.43;;;;;;;12.75;83.89;100427.88;5051376;28;20191;-78
2022/03/10 08:11:59;;;;;;;18.80;10.93;;;;;;;13.00;83.93;100457.56;5055215;28;20053;-79
2022/03/10 08:14:26;;;;;;;12.03;11.07;;;;;;;12.88;83.98;100436.69;5054490;28;20045;-78
2022/03/10 08:16:53;;;;;;;16.87;12.53;;;;;;;12.78;83.61;100404.00;5054501;28;20111;-79
2022/03/10 08:19:20;;;;;;;12.20;10.90;;;;;;;12.95;83.91;100449.19;5055234;28;20059;-80
2022/03/10 08:21:47;;;;;;;10.13;9.23;;;;;;;12.70;83.64;100422.31;5054481;28;20512;-79
2022/03/10 08:24:15;;;;;;;8.63;8.13;;;;;;;13.00;83.72;100474.38;5054974;28;20459;-80
2022/03/10 08:26:43;;;;;;;10.23;9.23;;;;;;;13.11;83.64;100474.25;5054718;28;20077;-81
2022/03/10 08:29:12;;;;;;;13.05;10.25;;;;;;;12.95;83.52;100437.16;5054988;28;20091;-80
2022/03/10 08:31:39;;;;;;;11.33;10.47;;;;;;;12.71;83.67;100409.97;5054172;28;20080;-80
2022/03/10 08:34:06;;;;;;;11.87;10.70;;;;;;;13.03;83.80;100428.94;5053808;28;20051;-80
2022/03/10 08:36:33;;;;;;;15.33;8.90;;;;;;;13.22;83.71;100453.34;5049358;28;20553;-80
2022/03/10 08:39:00;;;;;;;10.07;9.30;;;;;;;13.41;83.54;100451.44;5054091;28;20134;-80
2022/03/10 08:41:26;;;;;;;10.43;9.33;;;;;;;13.45;83.35;100424.47;5053218;28;20454;-79
2022/03/10 08:43:53;;;;;;;9.63;9.03;;;;;;;13.62;83.49;100439.94;5051711;28;20080;-79
2022/03/10 08:46:20;;;;;;;9.70;9.00;;;;;;;13.67;83.08;100431.41;5052754;28;20079;-80
2022/03/10 08:48:47;;;;;;;11.40;9.83;;;;;;;13.58;82.99;100388.38;5049666;28;20045;-81
2022/03/10 08:51:14;;;;;;;12.97;9.13;;;;;;;13.95;82.76;100436.03;5052411;28;20099;-81
2022/03/10 08:53:41;;;;;;;9.53;8.90;;;;;;;13.90;82.73;100433.28;5052308;28;20136;-80
2022/03/10 08:56:09;;;;;;;10.97;10.03;;;;;;;13.98;82.95;100443.00;5049284;28;20138;-79
2022/03/10 08:58:36;;;;;;;10.13;9.23;;;;;;;13.97;82.73;100407.63;5049842;28;20056;-79
2022/03/10 09:01:03;;;;;;;11.88;11.13;;;;;;;14.23;82.80;100422.09;5036729;28;20053;-80
2022/03/10 09:03:50;;;;;;;12.18;10.05;;;;;;;14.35;82.19;100393.47;5046366;28;20439;-80
2022/03/10 09:06:18;;;;;;;11.20;10.40;;;;;;;14.54;81.57;100376.59;5052927;28;20040;-80
2022/03/10 09:08:45;;;;;;;10.38;9.65;;;;;;;15.31;81.46;100424.41;5050143;28;20099;-79
2022/03/10 09:11:12;;;;;;;9.80;8.95;;;;;;;15.91;80.29;100434.59;5060448;28;20090;-76
2022/03/10 09:13:43;;;;;;;9.60;8.80;;;;;;;16.35;80.20;100441.38;5051979;28;20045;-77
2022/03/10 09:16:10;;;;;;;11.25;8.15;;;;;;;16.50;79.08;100445.75;5045413;28;20484;-78
2022/03/10 09:18:37;;;;;;;10.30;9.25;;;;;;;16.77;79.50;100447.59;5046953;28;20088;-77
2022/03/10 09:21:05;;;;;;;10.48;9.20;;;;;;;16.87;78.50;100430.38;5050850;28;20045;-77
2022/03/10 09:23:31;;;;;;;10.82;9.70;;;;;;;16.63;77.95;100432.75;5070869;28;20029;-79
2022/03/10 09:25:58;;;;;;;9.65;9.02;;;;;;;16.30;78.89;100445.13;5075312;28;20049;-78
2022/03/10 09:28:25;;;;;;;11.57;9.23;;;;;;;15.62;79.28;100392.75;5044984;28;20083;-77
2022/03/10 09:30:52;;;;;;;18.13;9.57;;;;;;;15.65;79.31;100442.78;5053326;28;20068;-79
2022/03/10 09:33:19;;;;;;;10.38;9.45;;;;;;;15.39;78.97;100459.44;5048428;28;20061;-78
2022/03/10 09:35:46;;;;;;;9.40;8.43;;;;;;;15.13;79.44;100428.19;5050889;28;20084;-80
2022/03/10 09:38:18;;;;;;;15.02;9.10;;;;;;;15.04;79.77;100425.31;5035552;28;20044;-79
2022/03/10 09:40:52;;;;;;;9.50;8.77;;;;;;;15.04;79.84;100436.56;5048684;28;20092;-78
2022/03/10 09:43:26;;;;;;;8.70;8.10;;;;;;;14.85;79.99;100431.03;5050346;28;20495;-78
2022/03/10 09:45:53;;;;;;;13.60;9.30;;;;;;;14.62;80.56;100429.25;5052327;28;20041;-78
2022/03/10 09:48:21;;;;;;;14.70;13.80;;;;;;;14.31;81.15;100412.94;5035260;28;20561;-78
2022/03/10 09:50:49;;;;;;;13.80;12.65;;;;;;;13.74;81.84;100375.75;5052730;28;20077;-77
2022/03/10 09:53:18;;;;;;;15.52;14.73;;;;;;;13.77;82.22;100391.13;5052105;28;20049;-78
2022/03/10 09:55:45;;;;;;;12.10;11.50;;;;;;;13.67;82.77;100428.63;5050956;28;20085;-78
2022/03/10 09:58:12;;;;;;;13.65;12.80;;;;;;;13.58;83.20;100424.84;5050433;28;20080;-79
2022/03/10 10:00:39;;;;;;;12.40;11.70;;;;;;;13.60;83.35;100428.16;5050708;28;20511;-78
2022/03/10 10:03:07;;;;;;;11.97;11.20;;;;;;;13.60;83.31;100425.34;5049203;28;20077;-78
2022/03/10 10:05:38;;;;;;;11.53;10.90;;;;;;;13.57;83.56;100421.19;5051191;28;20048;-79
2022/03/10 10:08:09;;;;;;;12.17;11.57;;;;;;;13.66;83.31;100439.00;5051652;28;20053;-79
2022/03/10 10:10:39;;;;;;;12.02;11.02;;;;;;;13.25;83.41;100391.09;5051139;28;20072;-77
2022/03/10 10:13:37;;;;;;;11.13;10.53;;;;;;;13.19;83.37;100383.84;5052273;28;20419;-78
2022/03/10 10:16:08;;;;;;;10.77;9.90;;;;;;;13.56;83.57;100443.94;5054453;28;20500;-78
2022/03/10 10:18:37;;;;;;;9.60;9.10;;;;;;;13.57;83.56;100443.63;5050378;28;20791;-79
2022/03/10 10:21:12;;;;;;;10.30;9.60;;;;;;;13.66;83.40;100452.22;5046089;28;20080;-80
2022/03/10 10:23:40;;;;;;;10.82;10.23;;;;;;;13.64;83.44;100426.41;5050171;28;20103;-80
2022/03/10 10:26:09;;;;;;;12.23;11.52;;;;;;;13.71;83.50;100438.94;5051572;28;20091;-78
2022/03/10 10:28:46;;;;;;;12.97;12.17;;;;;;;13.73;83.45;100441.44;5053712;28;20049;-78
2022/03/10 10:31:17;;;;;;;12.10;11.40;;;;;;;13.85;83.68;100438.19;5051569;28;20045;-79
2022/03/10 10:34:10;;;;;;;14.00;13.10;;;;;;;13.79;83.93;100434.59;5048745;28;20420;-79
2022/03/10 10:36:38;;;;;;;12.93;12.10;;;;;;;13.76;83.71;100424.00;5052146;28;20052;-78
2022/03/10 10:39:16;;;;;;;11.60;11.00;;;;;;;13.78;83.94;100437.69;5051732;28;20122;-79
2022/03/10 10:41:45;;;;;;;11.03;10.43;;;;;;;13.70;84.14;100420.41;5050419;28;20140;-78
2022/03/10 10:44:21;;;;;;;13.40;12.40;;;;;;;13.70;84.23;100428.00;5050979;28;20135;-78
2022/03/10 10:46:53;;;;;;;14.50;12.97;;;;;;;13.79;84.22;100423.38;5051057;28;20565;-76
2022/03/10 10:49:24;;;;;;;13.70;12.77;;;;;;;13.59;84.18;100364.78;5051237;28;20053;-78
2022/03/10 10:51:55;;;;;;;12.13;11.43;;;;;;;13.80;84.17;100404.56;5051532;28;20048;-79
2022/03/10 10:54:27;;;;;;;13.53;12.73;;;;;;;13.75;84.49;100405.50;5048127;28;20076;-78
2022/03/10 10:56:57;;;;;;;15.10;14.25;;;;;;;13.75;84.37;100377.44;5034346;28;20099;-78
2022/03/10 10:59:34;;;;;;;15.30;14.32;;;;;;;13.70;84.70;100391.53;5051244;28;20080;-78
2022/03/10 11:02:21;;;;;;;17.07;16.07;;;;;;;13.03;84.74;100288.78;5048011;28;20052;-77
2022/03/10 11:04:53;;;;;;;17.13;15.97;;;;;;;13.68;85.01;100400.25;5047440;28;20064;-77
2022/03/10 11:07:21;;;;;;;16.63;15.73;;;;;;;13.70;85.33;100408.38;5051527;28;20049;-78
2022/03/10 11:09:50;;;;;;;17.77;16.87;;;;;;;13.56;85.90;100411.09;5052556;28;20071;-79
2022/03/10 11:12:18;;;;;;;16.17;15.23;;;;;;;13.52;85.78;100385.63;5054617;28;20122;-78
2022/03/10 11:14:47;;;;;;;15.87;15.07;;;;;;;13.65;85.76;100395.25;5054085;28;20048;-78
2022/03/10 11:17:17;;;;;;;15.68;14.88;;;;;;;13.75;85.67;100416.72;5053050;28;20057;-78
2022/03/10 11:19:47;;;;;;;14.27;13.55;;;;;;;13.83;85.74;100418.00;5053854;28;20045;-80
2022/03/10 11:22:47;;;;;;;15.63;14.30;;;;;;;13.84;85.71;100420.47;5039723;28;20048;-78